Time;durP1;ratioP1;P1;durP2;ratioP2;P2;SDS_P1;SDS_P2;PMS_P1;PMS_P2;Temp;Humidity;BMP_temperature;BMP_pressure;BME280_temperature;BME280_humidity;BME280_pressure;Samples;Min_cycle;Max_cycle;Signal;HPM_P1;HPM_P2
2023/07/27 00:01:16;;;;;;;8.55;7.65;;;;;;;;;;4330236;32;318315;-83
2023/07/27 00:03:43;;;;;;;9.70;7.68;;;;;;;;;;4339790;32;317015;-82
2023/07/27 00:06:10;;;;;;;9.52;7.85;;;;;;;;;;4339728;32;316790;-82
2023/07/27 00:08:36;;;;;;;8.73;7.87;;;;;;;;;;4342899;32;416475;-82
2023/07/27 00:11:03;;;;;;;10.90;7.70;;;;;;;;;;4355396;32;317326;-82
2023/07/27 00:13:30;;;;;;;7.97;7.15;;;;;;;;;;4344856;32;318072;-82
2023/07/27 00:15:57;;;;;;;8.75;7.85;;;;;;;;;;4355560;32;316905;-82
2023/07/27 00:18:25;;;;;;;8.13;7.32;;;;;;;;;;4345917;32;317360;-83
2023/07/27 00:20:51;;;;;;;7.12;6.30;;;;;;;;;;4355683;32;316682;-82
2023/07/27 00:23:18;;;;;;;10.65;7.60;;;;;;;;;;4344788;32;317239;-82
2023/07/27 00:25:45;;;;;;;7.32;6.62;;;;;;;;;;4353791;32;324556;-82
2023/07/27 00:28:11;;;;;;;8.07;7.28;;;;;;;;;;4345947;32;317170;-82
2023/07/27 00:30:38;;;;;;;7.97;6.78;;;;;;;;;;4354910;32;316619;-82
2023/07/27 00:33:05;;;;;;;8.68;6.90;;;;;;;;;;4353680;32;338475;-83
2023/07/27 00:35:33;;;;;;;8.75;7.20;;;;;;;;;;4345724;32;317818;-83
2023/07/27 00:37:59;;;;;;;8.02;6.47;;;;;;;;;;4355294;32;316715;-82
2023/07/27 00:40:26;;;;;;;9.77;7.70;;;;;;;;;;4345469;32;317232;-82
2023/07/27 00:42:53;;;;;;;9.48;7.40;;;;;;;;;;4354046;32;316553;-82
2023/07/27 00:45:20;;;;;;;8.48;7.68;;;;;;;;;;4345595;32;316869;-87
2023/07/27 00:47:47;;;;;;;10.82;7.75;;;;;;;;;;4355037;32;316435;-83
2023/07/27 00:50:14;;;;;;;8.63;7.72;;;;;;;;;;4345400;32;318286;-83
2023/07/27 00:52:42;;;;;;;9.70;7.87;;;;;;;;;;4354852;32;317294;-83
2023/07/27 00:55:09;;;;;;;9.00;8.07;;;;;;;;;;4354821;32;316367;-82
2023/07/27 00:57:36;;;;;;;8.98;8.07;;;;;;;;;;4341534;32;416595;-82
2023/07/27 01:00:03;;;;;;;7.70;6.97;;;;;;;;;;4355434;32;316497;-82
2023/07/27 01:02:30;;;;;;;7.85;7.03;;;;;;;;;;4344125;32;317479;-82
2023/07/27 01:04:57;;;;;;;8.20;7.22;;;;;;;;;;4353107;32;317225;-82
2023/07/27 01:07:24;;;;;;;7.40;6.68;;;;;;;;;;4345196;32;317208;-82
2023/07/27 01:09:52;;;;;;;6.80;6.18;;;;;;;;;;4354714;32;317175;-83
2023/07/27 01:12:23;;;;;;;8.60;6.70;;;;;;;;;;4325110;32;317359;-83
2023/07/27 01:15:01;;;;;;;10.00;6.65;;;;;;;;;;4340416;32;316669;-83
2023/07/27 01:17:32;;;;;;;7.75;6.55;;;;;;;;;;4330060;32;317534;-83
2023/07/27 01:20:06;;;;;;;9.48;6.43;;;;;;;;;;4353502;32;316740;-83
2023/07/27 01:23:25;;;;;;;6.07;5.28;;;;;;;;;;4344988;32;316687;-83
2023/07/27 01:26:20;;;;;;;5.90;3.85;;;;;;;;;;4340686;32;417477;-83
2023/07/27 01:29:03;;;;;;;4.95;3.40;;;;;;;;;;4342126;32;418742;-83
2023/07/27 01:31:41;;;;;;;4.25;3.70;;;;;;;;;;4344060;32;316879;-83
2023/07/27 01:34:15;;;;;;;4.07;3.53;;;;;;;;;;4354807;32;316799;-83
2023/07/27 01:36:42;;;;;;;4.22;3.83;;;;;;;;;;4341979;32;417820;-83
2023/07/27 01:39:12;;;;;;;3.80;2.92;;;;;;;;;;4353417;32;317135;-83
2023/07/27 01:41:42;;;;;;;4.80;3.30;;;;;;;;;;4341908;32;417394;-83
2023/07/27 01:44:10;;;;;;;4.25;2.87;;;;;;;;;;4352956;32;316616;-82
2023/07/27 01:46:40;;;;;;;3.12;2.83;;;;;;;;;;4354889;32;416361;-83
2023/07/27 01:49:09;;;;;;;3.75;3.45;;;;;;;;;;4368425;32;316553;-83
2023/07/27 01:51:38;;;;;;;4.37;3.65;;;;;;;;;;4353552;32;416351;-83
2023/07/27 01:54:07;;;;;;;4.20;3.75;;;;;;;;;;4352736;32;316242;-83
2023/07/27 01:56:34;;;;;;;4.78;4.28;;;;;;;;;;4344688;32;316830;-83
2023/07/27 01:59:02;;;;;;;5.90;4.75;;;;;;;;;;4353671;32;317518;-82
2023/07/27 02:01:30;;;;;;;4.55;4.15;;;;;;;;;;4343821;32;316769;-83
2023/07/27 02:03:58;;;;;;;4.72;4.30;;;;;;;;;;4354102;32;316990;-83
2023/07/27 02:06:25;;;;;;;5.55;4.45;;;;;;;;;;4341601;32;344585;-83
2023/07/27 02:08:52;;;;;;;5.87;4.87;;;;;;;;;;4338941;32;316458;-83
2023/07/27 02:11:20;;;;;;;7.25;4.62;;;;;;;;;;4338632;32;316713;-83
2023/07/27 02:13:52;;;;;;;10.45;4.72;;;;;;;;;;4369083;32;316767;-83
2023/07/27 02:16:23;;;;;;;5.87;4.85;;;;;;;;;;4328114;32;318149;-83
2023/07/27 02:18:51;;;;;;;5.78;5.28;;;;;;;;;;4338834;32;316704;-82
2023/07/27 02:21:21;;;;;;;5.62;4.87;;;;;;;;;;4329406;32;317319;-83
2023/07/27 02:23:48;;;;;;;4.95;4.55;;;;;;;;;;4338547;32;316692;-83
2023/07/27 02:26:16;;;;;;;5.57;4.62;;;;;;;;;;4327428;32;316738;-83
2023/07/27 02:28:43;;;;;;;5.85;5.35;;;;;;;;;;4338978;32;316372;-83
2023/07/27 02:31:10;;;;;;;6.40;4.60;;;;;;;;;;4339563;32;316503;-83
2023/07/27 02:33:37;;;;;;;5.28;4.80;;;;;;;;;;4326691;32;416615;-83
2023/07/27 02:36:03;;;;;;;5.30;4.80;;;;;;;;;;4338612;32;317236;-83
2023/07/27 02:38:32;;;;;;;5.90;5.40;;;;;;;;;;4325969;32;317387;-83
2023/07/27 02:40:58;;;;;;;5.43;4.95;;;;;;;;;;4363833;32;317118;-82
2023/07/27 02:43:25;;;;;;;6.37;5.65;;;;;;;;;;4346987;32;320623;-83
2023/07/27 02:45:58;;;;;;;7.62;5.37;;;;;;;;;;4367270;32;317155;-83
2023/07/27 02:48:24;;;;;;;5.22;4.72;;;;;;;;;;4351917;32;317170;-83
2023/07/27 02:50:52;;;;;;;5.87;4.97;;;;;;;;;;4357726;32;316457;-83
2023/07/27 02:53:18;;;;;;;5.25;4.75;;;;;;;;;;4342087;32;317412;-83
2023/07/27 02:55:56;;;;;;;4.95;4.55;;;;;;;;;;4351536;32;337519;-84
2023/07/27 02:58:23;;;;;;;5.27;4.77;;;;;;;;;;4342580;32;316798;-83
2023/07/27 03:00:51;;;;;;;4.70;4.30;;;;;;;;;;4353492;32;316754;-83
2023/07/27 03:03:18;;;;;;;5.12;4.12;;;;;;;;;;4343641;32;317079;-83
2023/07/27 03:05:45;;;;;;;6.82;3.90;;;;;;;;;;4353571;32;316922;-83
2023/07/27 03:08:11;;;;;;;4.25;3.83;;;;;;;;;;4341934;32;317491;-83
2023/07/27 03:10:39;;;;;;;4.30;3.90;;;;;;;;;;4351760;32;356326;-83
2023/07/27 03:13:07;;;;;;;3.80;3.40;;;;;;;;;;4351731;32;317064;-83
2023/07/27 03:15:33;;;;;;;3.78;3.40;;;;;;;;;;4342602;32;316869;-83
2023/07/27 03:18:00;;;;;;;3.47;3.17;;;;;;;;;;4353112;32;316885;-82
2023/07/27 03:20:27;;;;;;;3.53;3.22;;;;;;;;;;4343539;32;316667;-83
2023/07/27 03:22:53;;;;;;;3.70;3.40;;;;;;;;;;4351666;32;316697;-83
2023/07/27 03:25:20;;;;;;;4.80;3.77;;;;;;;;;;4341546;32;332735;-83
2023/07/27 03:27:47;;;;;;;5.32;3.70;;;;;;;;;;4352417;32;316461;-83
2023/07/27 03:30:15;;;;;;;4.30;3.45;;;;;;;;;;4342138;32;316724;-83
2023/07/27 03:32:42;;;;;;;6.05;3.78;;;;;;;;;;4353005;32;317146;-83
2023/07/27 03:35:09;;;;;;;5.22;3.58;;;;;;;;;;4351978;32;317132;-83
2023/07/27 03:37:35;;;;;;;4.10;3.70;;;;;;;;;;4339290;32;416650;-83
2023/07/27 03:40:02;;;;;;;4.32;3.58;;;;;;;;;;4352745;32;317555;-83
2023/07/27 03:42:29;;;;;;;8.27;3.58;;;;;;;;;;4343302;32;317055;-82
2023/07/27 03:44:56;;;;;;;4.10;3.78;;;;;;;;;;4353015;32;317339;-82
2023/07/27 03:47:24;;;;;;;3.85;3.55;;;;;;;;;;4341537;32;317088;-83
2023/07/27 03:49:50;;;;;;;3.83;3.47;;;;;;;;;;4351670;32;317345;-83
2023/07/27 03:52:17;;;;;;;3.90;3.60;;;;;;;;;;4341746;32;329613;-83
2023/07/27 03:54:44;;;;;;;3.78;3.47;;;;;;;;;;4352562;32;316585;-83
2023/07/27 03:57:11;;;;;;;3.85;3.47;;;;;;;;;;4341805;32;316720;-85
2023/07/27 03:59:37;;;;;;;5.28;2.97;;;;;;;;;;4351887;32;316698;-84
2023/07/27 04:02:04;;;;;;;4.00;3.60;;;;;;;;;;4353065;32;316549;-84
2023/07/27 04:04:32;;;;;;;3.67;3.37;;;;;;;;;;4343181;32;317177;-84
2023/07/27 04:06:59;;;;;;;5.35;3.55;;;;;;;;;;4352643;32;317269;-84
2023/07/27 04:09:26;;;;;;;3.37;3.08;;;;;;;;;;4342723;32;316813;-84
2023/07/27 04:11:53;;;;;;;4.90;3.17;;;;;;;;;;4351444;32;316731;-83
2023/07/27 04:14:20;;;;;;;7.22;3.20;;;;;;;;;;4343121;32;316676;-83
2023/07/27 04:16:47;;;;;;;2.83;2.62;;;;;;;;;;4351477;32;317124;-84
2023/07/27 04:19:13;;;;;;;3.90;3.08;;;;;;;;;;4340238;32;356051;-84
2023/07/27 04:21:41;;;;;;;3.78;3.37;;;;;;;;;;4352680;32;316961;-84
2023/07/27 04:24:08;;;;;;;7.47;2.35;;;;;;;;;;4352420;32;316664;-83
2023/07/27 04:26:35;;;;;;;6.85;2.15;;;;;;;;;;4339801;32;416675;-83
2023/07/27 04:29:02;;;;;;;1.92;1.75;;;;;;;;;;4351500;32;316544;-84
2023/07/27 04:31:28;;;;;;;2.65;2.25;;;;;;;;;;4340984;32;350785;-83
2023/07/27 04:33:55;;;;;;;3.33;2.05;;;;;;;;;;4352529;32;317397;-83
2023/07/27 04:36:22;;;;;;;1.80;1.70;;;;;;;;;;4342742;32;316641;-83
2023/07/27 04:38:50;;;;;;;2.90;1.90;;;;;;;;;;4352185;32;316692;-85
2023/07/27 04:41:19;;;;;;;2.17;1.70;;;;;;;;;;4345341;32;316684;-87
2023/07/27 04:43:46;;;;;;;2.60;1.45;;;;;;;;;;4355149;32;317167;-89
2023/07/27 04:46:12;;;;;;;1.92;1.60;;;;;;;;;;4344507;32;316924;-89
2023/07/27 04:48:39;;;;;;;3.78;3.17;;;;;;;;;;4351841;32;317056;-89
2023/07/27 04:51:06;;;;;;;5.47;3.30;;;;;;;;;;4340414;32;316543;-90
2023/07/27 04:53:33;;;;;;;2.85;1.80;;;;;;;;;;4328607;32;316538;-89
2023/07/27 04:56:01;;;;;;;1.33;1.23;;;;;;;;;;4336407;32;327316;-90
2023/07/27 04:58:28;;;;;;;1.83;1.58;;;;;;;;;;4329196;32;316996;-91
2023/07/27 05:00:55;;;;;;;12.20;1.92;;;;;;;;;;4339046;32;317083;-89
2023/07/27 05:03:22;;;;;;;1.95;1.75;;;;;;;;;;4332253;32;317522;-88
2023/07/27 05:05:49;;;;;;;2.40;1.75;;;;;;;;;;4355095;32;317619;-89
2023/07/27 05:08:16;;;;;;;1.58;1.48;;;;;;;;;;4343404;32;316599;-90
2023/07/27 05:10:42;;;;;;;2.87;1.33;;;;;;;;;;4354528;32;317158;-91
2023/07/27 05:13:11;;;;;;;1.40;1.27;;;;;;;;;;4354747;32;316359;-89
2023/07/27 05:15:41;;;;;;;1.50;1.40;;;;;;;;;;4341047;32;416345;-91
2023/07/27 05:18:08;;;;;;;2.08;1.58;;;;;;;;;;4368270;32;316354;-90
2023/07/27 05:20:35;;;;;;;2.90;2.12;;;;;;;;;;4360174;32;316303;-89
2023/07/27 05:23:02;;;;;;;3.10;1.90;;;;;;;;;;4369398;32;317107;-89
2023/07/27 05:25:29;;;;;;;4.55;3.47;;;;;;;;;;4358826;32;316626;-86
2023/07/27 05:27:55;;;;;;;2.40;2.20;;;;;;;;;;4368568;32;316966;-89
2023/07/27 05:30:24;;;;;;;3.17;2.20;;;;;;;;;;4359946;32;316819;-88
2023/07/27 05:32:50;;;;;;;4.35;2.47;;;;;;;;;;4368949;32;341041;-88
2023/07/27 05:35:17;;;;;;;13.85;4.22;;;;;;;;;;4359465;32;317592;-95
2023/07/27 05:37:46;;;;;;;2.87;2.40;;;;;;;;;;4369191;32;317468;-85
2023/07/27 05:40:13;;;;;;;2.92;2.22;;;;;;;;;;4349660;32;317665;-81
2023/07/27 05:42:40;;;;;;;4.07;3.20;;;;;;;;;;4347445;32;316704;-84
2023/07/27 05:45:08;;;;;;;3.30;2.10;;;;;;;;;;4353189;32;317403;-83
2023/07/27 05:47:36;;;;;;;5.55;3.00;;;;;;;;;;4337774;32;416710;-88
2023/07/27 05:50:03;;;;;;;8.55;3.53;;;;;;;;;;4348806;32;317604;-88
2023/07/27 05:52:30;;;;;;;5.85;3.33;;;;;;;;;;4328186;32;316509;-88
2023/07/27 05:54:57;;;;;;;12.10;2.78;;;;;;;;;;4346152;32;316404;-88
2023/07/27 05:57:24;;;;;;;4.80;2.20;;;;;;;;;;4342891;32;318015;-88
2023/07/27 05:59:51;;;;;;;3.28;2.53;;;;;;;;;;4352647;32;316578;-88
2023/07/27 06:02:18;;;;;;;3.60;2.47;;;;;;;;;;4342670;32;317112;-88
2023/07/27 06:04:46;;;;;;;3.15;2.00;;;;;;;;;;4351427;32;316624;-89
2023/07/27 06:07:13;;;;;;;2.15;1.95;;;;;;;;;;4335934;32;317171;-84
2023/07/27 06:09:40;;;;;;;1.92;1.70;;;;;;;;;;4347334;32;317649;-83
2023/07/27 06:12:11;;;;;;;3.70;2.05;;;;;;;;;;4346084;32;323194;-84
2023/07/27 06:14:38;;;;;;;4.45;1.83;;;;;;;;;;4325387;32;416126;-83
2023/07/27 06:17:05;;;;;;;3.65;2.45;;;;;;;;;;4337754;32;316957;-84
2023/07/27 06:19:32;;;;;;;1.85;1.70;;;;;;;;;;4328417;32;317357;-84
2023/07/27 06:22:00;;;;;;;2.80;1.55;;;;;;;;;;4337816;32;316707;-83
2023/07/27 06:24:27;;;;;;;2.50;1.83;;;;;;;;;;4328304;32;316762;-83
2023/07/27 06:26:53;;;;;;;3.67;1.70;;;;;;;;;;4338964;32;316736;-84
2023/07/27 06:29:20;;;;;;;1.95;1.50;;;;;;;;;;4329437;32;316478;-83
2023/07/27 06:31:47;;;;;;;2.97;1.40;;;;;;;;;;4338758;32;316676;-84
2023/07/27 06:34:14;;;;;;;4.57;1.60;;;;;;;;;;4328267;32;316756;-83
2023/07/27 06:36:41;;;;;;;2.85;1.58;;;;;;;;;;4347325;32;316835;-83
2023/07/27 06:39:09;;;;;;;3.10;1.87;;;;;;;;;;4353472;32;316655;-84
2023/07/27 06:41:36;;;;;;;3.83;1.62;;;;;;;;;;4340812;32;414914;-83
2023/07/27 06:44:03;;;;;;;3.40;1.50;;;;;;;;;;4352490;32;317559;-84
2023/07/27 06:46:30;;;;;;;2.10;1.40;;;;;;;;;;4343700;32;316533;-83
2023/07/27 06:48:56;;;;;;;3.03;1.35;;;;;;;;;;4348852;32;317094;-83
2023/07/27 06:51:24;;;;;;;3.10;1.58;;;;;;;;;;4329286;32;316708;-84
2023/07/27 06:53:50;;;;;;;1.62;1.27;;;;;;;;;;4336720;32;317357;-83
2023/07/27 06:56:18;;;;;;;5.75;1.75;;;;;;;;;;4316686;32;316911;-83
2023/07/27 06:58:45;;;;;;;5.87;1.95;;;;;;;;;;4338313;32;316622;-83
2023/07/27 07:01:12;;;;;;;2.97;1.50;;;;;;;;;;4328534;32;317334;-85
2023/07/27 07:03:39;;;;;;;6.60;1.25;;;;;;;;;;4336982;32;317379;-83
2023/07/27 07:06:08;;;;;;;4.18;1.55;;;;;;;;;;4337610;32;317251;-84
2023/07/27 07:08:35;;;;;;;1.35;1.12;;;;;;;;;;4340285;32;416896;-84
2023/07/27 07:11:02;;;;;;;3.28;1.40;;;;;;;;;;4353199;32;316868;-83
2023/07/27 07:13:30;;;;;;;2.17;1.48;;;;;;;;;;4357970;32;317019;-84
2023/07/27 07:15:57;;;;;;;3.05;1.45;;;;;;;;;;4368296;32;317420;-84
2023/07/27 07:18:24;;;;;;;6.10;1.50;;;;;;;;;;4357631;32;317396;-85
2023/07/27 07:20:51;;;;;;;1.10;1.00;;;;;;;;;;4377285;32;315652;-84
2023/07/27 07:23:18;;;;;;;5.57;1.30;;;;;;;;;;4362049;32;316589;-85
2023/07/27 07:25:45;;;;;;;1.48;1.15;;;;;;;;;;4361398;32;316331;-86
2023/07/27 07:28:12;;;;;;;2.30;1.10;;;;;;;;;;4344121;32;315650;-84
2023/07/27 07:30:41;;;;;;;3.97;1.02;;;;;;;;;;4368824;32;315833;-85
2023/07/27 07:33:08;;;;;;;1.73;1.17;;;;;;;;;;4354347;32;316549;-87
2023/07/27 07:35:38;;;;;;;3.42;1.48;;;;;;;;;;4343560;32;417954;-87
2023/07/27 07:38:05;;;;;;;2.83;1.10;;;;;;;;;;4367213;32;317358;-87
2023/07/27 07:40:32;;;;;;;1.83;1.00;;;;;;;;;;4354878;32;317275;-85
2023/07/27 07:42:58;;;;;;;3.03;1.37;;;;;;;;;;4351619;32;335512;-86
2023/07/27 07:45:25;;;;;;;3.70;1.20;;;;;;;;;;4343425;32;316757;-86
2023/07/27 07:47:53;;;;;;;1.80;1.23;;;;;;;;;;4352719;32;316597;-86
2023/07/27 07:50:20;;;;;;;2.35;1.00;;;;;;;;;;4343132;32;317105;-86
2023/07/27 07:52:47;;;;;;;1.33;0.93;;;;;;;;;;4351238;32;316720;-85
2023/07/27 07:55:13;;;;;;;1.87;1.40;;;;;;;;;;4341272;32;319414;-85
2023/07/27 07:57:40;;;;;;;5.28;1.40;;;;;;;;;;4364349;32;317124;-85
2023/07/27 08:00:08;;;;;;;3.03;1.40;;;;;;;;;;4367769;32;316531;-85
2023/07/27 08:02:35;;;;;;;7.93;1.45;;;;;;;;;;4354889;32;416679;-85
2023/07/27 08:05:03;;;;;;;1.80;1.15;;;;;;;;;;4354427;32;316568;-84
2023/07/27 08:07:30;;;;;;;3.65;1.33;;;;;;;;;;4341558;32;316543;-86
2023/07/27 08:09:58;;;;;;;1.80;1.10;;;;;;;;;;4351405;32;316520;-85
2023/07/27 08:12:25;;;;;;;1.87;0.85;;;;;;;;;;4343336;32;317590;-84
2023/07/27 08:14:52;;;;;;;3.40;1.35;;;;;;;;;;4354898;32;317697;-88
2023/07/27 08:17:19;;;;;;;5.78;1.27;;;;;;;;;;4344230;32;332319;-86
2023/07/27 08:19:46;;;;;;;2.15;1.10;;;;;;;;;;4354351;32;316818;-87
2023/07/27 08:22:14;;;;;;;5.10;1.27;;;;;;;;;;4343191;32;397541;-87
2023/07/27 08:24:41;;;;;;;1.80;0.80;;;;;;;;;;4353661;32;345557;-86
2023/07/27 08:27:08;;;;;;;1.75;1.00;;;;;;;;;;4355697;32;316656;-86
2023/07/27 08:29:35;;;;;;;3.58;1.10;;;;;;;;;;4332917;32;416990;-85
2023/07/27 08:32:02;;;;;;;1.77;0.90;;;;;;;;;;4350560;32;316742;-87
2023/07/27 08:34:29;;;;;;;2.00;1.00;;;;;;;;;;4344796;32;316475;-91
2023/07/27 08:36:56;;;;;;;7.07;1.00;;;;;;;;;;4340146;32;316722;-88
2023/07/27 08:39:24;;;;;;;4.45;0.90;;;;;;;;;;4340089;32;317001;-85
2023/07/27 08:41:51;;;;;;;1.12;0.90;;;;;;;;;;4369361;32;317720;-87
2023/07/27 08:44:18;;;;;;;5.93;1.13;;;;;;;;;;4358757;32;346055;-86
2023/07/27 08:46:46;;;;;;;1.95;1.12;;;;;;;;;;4367136;32;316776;-87
2023/07/27 08:49:14;;;;;;;2.92;1.37;;;;;;;;;;4335344;32;324613;-85
2023/07/27 08:51:44;;;;;;;3.70;1.65;;;;;;;;;;4340121;32;317119;-86
2023/07/27 08:54:11;;;;;;;1.02;0.80;;;;;;;;;;4326618;32;316608;-86
2023/07/27 08:56:39;;;;;;;5.47;0.98;;;;;;;;;;4325633;32;317726;-86
2023/07/27 08:59:06;;;;;;;4.62;1.00;;;;;;;;;;4325610;32;316843;-86
2023/07/27 09:01:33;;;;;;;9.18;1.25;;;;;;;;;;4315745;32;316906;-87
2023/07/27 09:04:00;;;;;;;2.58;0.82;;;;;;;;;;4338323;32;316929;-86
2023/07/27 09:06:39;;;;;;;2.28;1.10;;;;;;;;;;4329521;32;316521;-88
2023/07/27 09:09:16;;;;;;;1.80;1.00;;;;;;;;;;4338875;32;317408;-86
2023/07/27 09:11:46;;;;;;;5.47;1.23;;;;;;;;;;4345661;32;416511;-86
2023/07/27 09:14:13;;;;;;;3.90;1.15;;;;;;;;;;4358888;32;316722;-89
2023/07/27 09:16:40;;;;;;;3.45;1.40;;;;;;;;;;4368489;32;317254;-86
2023/07/27 09:19:07;;;;;;;2.85;1.17;;;;;;;;;;4368498;32;357334;-86
2023/07/27 09:21:41;;;;;;;4.72;0.98;;;;;;;;;;4357885;32;345131;-86
2023/07/27 09:24:11;;;;;;;3.20;1.23;;;;;;;;;;4367576;32;316866;-86
2023/07/27 09:26:46;;;;;;;5.37;1.95;;;;;;;;;;4341606;32;416571;-86
2023/07/27 09:29:13;;;;;;;2.95;1.20;;;;;;;;;;4345184;32;317386;-86
2023/07/27 09:31:48;;;;;;;2.20;1.20;;;;;;;;;;4354725;32;316522;-86
2023/07/27 09:34:15;;;;;;;2.70;1.20;;;;;;;;;;4344278;32;316890;-86
2023/07/27 09:36:41;;;;;;;7.78;1.27;;;;;;;;;;4354203;32;317050;-88
2023/07/27 09:39:09;;;;;;;2.92;1.55;;;;;;;;;;4354627;32;316709;-86
2023/07/27 09:41:35;;;;;;;3.83;1.37;;;;;;;;;;4330551;32;415854;-84
2023/07/27 09:44:04;;;;;;;18.52;1.77;;;;;;;;;;4342590;32;316737;-84
2023/07/27 09:46:32;;;;;;;5.28;1.37;;;;;;;;;;4332674;32;318517;-86
2023/07/27 09:48:59;;;;;;;12.55;1.50;;;;;;;;;;4354412;32;317285;-86
2023/07/27 09:51:27;;;;;;;1.77;1.02;;;;;;;;;;4345641;32;339691;-86
2023/07/27 09:53:55;;;;;;;1.12;1.00;;;;;;;;;;4352954;32;317223;-86
2023/07/27 09:56:22;;;;;;;5.82;1.20;;;;;;;;;;4344762;32;316865;-87
2023/07/27 09:58:49;;;;;;;3.70;1.58;;;;;;;;;;4352556;32;331296;-86
2023/07/27 10:01:19;;;;;;;3.55;1.20;;;;;;;;;;4343510;32;317145;-87
2023/07/27 10:03:46;;;;;;;2.03;1.00;;;;;;;;;;4354198;32;316586;-86
2023/07/27 10:06:14;;;;;;;1.80;1.10;;;;;;;;;;4344100;32;317127;-85
2023/07/27 10:08:42;;;;;;;1.12;1.00;;;;;;;;;;4353930;32;316609;-87
2023/07/27 10:11:09;;;;;;;1.87;0.98;;;;;;;;;;4352952;32;316922;-85
2023/07/27 10:13:38;;;;;;;2.78;1.20;;;;;;;;;;4340117;32;416615;-85
2023/07/27 10:16:09;;;;;;;2.80;1.37;;;;;;;;;;4362707;32;316525;-87
2023/07/27 10:18:42;;;;;;;1.95;1.27;;;;;;;;;;4356158;32;416301;-86
2023/07/27 10:21:26;;;;;;;2.75;1.42;;;;;;;;;;4354119;32;317216;-87
2023/07/27 10:23:58;;;;;;;3.90;1.15;;;;;;;;;;4326266;32;416528;-86
2023/07/27 10:26:46;;;;;;;1.35;1.15;;;;;;;;;;4328701;32;316576;-86
2023/07/27 10:29:15;;;;;;;2.65;1.27;;;;;;;;;;4328202;32;317104;-85
2023/07/27 10:31:43;;;;;;;4.05;1.62;;;;;;;;;;4337850;32;317126;-86
2023/07/27 10:34:16;;;;;;;7.65;1.87;;;;;;;;;;4332301;32;316736;-86
2023/07/27 10:36:51;;;;;;;2.62;1.45;;;;;;;;;;4351998;32;353264;-86
2023/07/27 10:39:18;;;;;;;2.50;1.20;;;;;;;;;;4343848;32;316911;-85
2023/07/27 10:42:07;;;;;;;1.62;1.17;;;;;;;;;;4355013;32;206624;-85
2023/07/27 10:44:42;;;;;;;4.82;1.80;;;;;;;;;;4356884;32;317076;-85
2023/07/27 10:47:10;;;;;;;6.65;1.30;;;;;;;;;;4363129;32;316586;-86
2023/07/27 10:49:42;;;;;;;7.55;1.77;;;;;;;;;;4332126;32;416335;-87
2023/07/27 10:52:10;;;;;;;4.97;1.50;;;;;;;;;;4335860;32;351126;-88
2023/07/27 10:54:43;;;;;;;3.05;1.33;;;;;;;;;;4331583;32;416096;-86
2023/07/27 10:57:11;;;;;;;3.47;1.50;;;;;;;;;;4323935;32;317333;-85
2023/07/27 10:59:39;;;;;;;2.62;1.83;;;;;;;;;;4327779;32;416738;-87
2023/07/27 11:02:12;;;;;;;4.87;1.45;;;;;;;;;;4337537;32;316832;-86
2023/07/27 11:04:41;;;;;;;5.65;1.52;;;;;;;;;;4339596;32;416323;-87
2023/07/27 11:07:10;;;;;;;2.47;1.50;;;;;;;;;;4353037;32;317108;-87
2023/07/27 11:09:37;;;;;;;2.35;1.60;;;;;;;;;;4339260;32;416523;-86
2023/07/27 11:12:05;;;;;;;2.75;1.45;;;;;;;;;;4352005;32;316803;-86
2023/07/27 11:14:32;;;;;;;2.42;1.65;;;;;;;;;;4343661;32;316746;-85
2023/07/27 11:16:58;;;;;;;9.10;1.45;;;;;;;;;;4352593;32;316461;-86
2023/07/27 11:19:26;;;;;;;5.70;1.42;;;;;;;;;;4343538;32;317154;-85
2023/07/27 11:21:55;;;;;;;2.58;1.58;;;;;;;;;;4351825;32;316643;-85
2023/07/27 11:24:22;;;;;;;7.90;1.80;;;;;;;;;;4343561;32;316887;-86
2023/07/27 11:26:49;;;;;;;2.00;1.55;;;;;;;;;;4352323;32;316571;-86
2023/07/27 11:29:17;;;;;;;2.97;1.98;;;;;;;;;;4342174;32;316587;-86
2023/07/27 11:31:54;;;;;;;4.70;1.98;;;;;;;;;;4353006;32;316605;-86
2023/07/27 11:34:23;;;;;;;4.07;1.80;;;;;;;;;;4343487;32;317060;-86
2023/07/27 11:36:52;;;;;;;1.90;1.70;;;;;;;;;;4350054;32;316575;-87
2023/07/27 11:39:21;;;;;;;2.85;2.20;;;;;;;;;;4341532;32;316358;-86
2023/07/27 11:41:49;;;;;;;4.53;2.05;;;;;;;;;;4353036;32;316578;-87
2023/07/27 11:44:16;;;;;;;2.37;1.53;;;;;;;;;;4342750;32;354174;-85
2023/07/27 11:46:47;;;;;;;1.98;1.50;;;;;;;;;;4356178;32;316621;-85
2023/07/27 11:49:14;;;;;;;2.35;1.80;;;;;;;;;;4349500;32;316687;-85
2023/07/27 11:51:42;;;;;;;1.77;1.52;;;;;;;;;;4345988;32;317445;-86
2023/07/27 11:54:09;;;;;;;3.45;1.70;;;;;;;;;;4363350;32;316945;-86
2023/07/27 11:56:38;;;;;;;8.25;1.52;;;;;;;;;;4335637;32;416419;-85
2023/07/27 11:59:05;;;;;;;4.57;2.00;;;;;;;;;;4377196;32;316365;-85
2023/07/27 12:01:34;;;;;;;2.70;2.00;;;;;;;;;;4377659;32;316189;-85
2023/07/27 12:04:01;;;;;;;2.30;1.80;;;;;;;;;;4383003;32;355650;-85
2023/07/27 12:06:29;;;;;;;5.68;2.08;;;;;;;;;;4367519;32;315068;-86
2023/07/27 12:08:56;;;;;;;3.37;2.03;;;;;;;;;;4369567;32;315626;-86
2023/07/27 12:11:26;;;;;;;3.50;1.77;;;;;;;;;;4349049;32;316675;-86
2023/07/27 12:13:54;;;;;;;2.95;1.55;;;;;;;;;;4354369;32;317483;-86
2023/07/27 12:16:21;;;;;;;2.90;1.77;;;;;;;;;;4343552;32;317359;-86
2023/07/27 12:18:48;;;;;;;2.47;1.77;;;;;;;;;;4354501;32;316798;-86
2023/07/27 12:21:15;;;;;;;3.10;1.77;;;;;;;;;;4346461;32;316748;-86
2023/07/27 12:23:42;;;;;;;2.40;1.98;;;;;;;;;;4365936;32;316600;-86
2023/07/27 12:26:10;;;;;;;1.58;1.48;;;;;;;;;;4356033;32;344427;-87
2023/07/27 12:28:37;;;;;;;2.22;1.70;;;;;;;;;;4345195;32;418171;-87
2023/07/27 12:31:05;;;;;;;2.87;1.80;;;;;;;;;;4370542;32;316702;-87
2023/07/27 12:33:32;;;;;;;7.72;1.67;;;;;;;;;;4358466;32;349519;-86
2023/07/27 12:35:58;;;;;;;3.53;1.80;;;;;;;;;;4370402;32;317018;-86
2023/07/27 12:38:26;;;;;;;1.92;1.67;;;;;;;;;;4344693;32;316620;-85
2023/07/27 12:40:52;;;;;;;3.37;1.70;;;;;;;;;;4351212;32;316800;-86
2023/07/27 12:43:19;;;;;;;2.70;1.52;;;;;;;;;;4344670;32;317500;-87
2023/07/27 12:45:46;;;;;;;3.97;1.90;;;;;;;;;;4353057;32;355407;-87
2023/07/27 12:48:14;;;;;;;8.05;1.98;;;;;;;;;;4343953;32;316591;-87
2023/07/27 12:50:41;;;;;;;2.30;1.60;;;;;;;;;;4339109;32;317079;-87
2023/07/27 12:53:08;;;;;;;1.80;1.42;;;;;;;;;;4337768;32;321033;-86
2023/07/27 12:55:35;;;;;;;2.00;1.50;;;;;;;;;;4343757;32;316472;-86
2023/07/27 12:58:02;;;;;;;5.35;1.67;;;;;;;;;;4356603;32;317253;-86
2023/07/27 13:00:28;;;;;;;3.30;1.98;;;;;;;;;;4346859;32;317081;-86
2023/07/27 13:02:56;;;;;;;8.27;1.95;;;;;;;;;;4355083;32;316644;-87
2023/07/27 13:05:24;;;;;;;2.05;1.55;;;;;;;;;;4346467;32;316497;-87
2023/07/27 13:07:51;;;;;;;1.80;1.40;;;;;;;;;;4355977;32;323804;-85
2023/07/27 13:10:18;;;;;;;2.00;1.62;;;;;;;;;;4345553;32;316804;-86
2023/07/27 13:12:45;;;;;;;2.15;1.70;;;;;;;;;;4354981;32;316716;-86
2023/07/27 13:15:12;;;;;;;3.00;1.70;;;;;;;;;;4345167;32;316603;-87
2023/07/27 13:17:40;;;;;;;3.60;1.85;;;;;;;;;;4354081;32;316490;-86
2023/07/27 13:20:09;;;;;;;2.28;1.85;;;;;;;;;;4354598;32;317280;-87
2023/07/27 13:22:38;;;;;;;6.35;2.20;;;;;;;;;;4341651;32;380534;-86
2023/07/27 13:25:05;;;;;;;6.97;2.28;;;;;;;;;;4354895;32;316518;-87
2023/07/27 13:27:32;;;;;;;2.22;1.87;;;;;;;;;;4344635;32;316546;-85
2023/07/27 13:30:03;;;;;;;4.00;2.15;;;;;;;;;;4364743;32;317143;-88
2023/07/27 13:32:29;;;;;;;2.42;2.20;;;;;;;;;;4359889;32;316772;-87
2023/07/27 13:34:56;;;;;;;7.65;1.87;;;;;;;;;;4368553;32;316490;-87
2023/07/27 13:37:23;;;;;;;3.83;2.33;;;;;;;;;;4358575;32;317310;-87
2023/07/27 13:39:51;;;;;;;4.22;2.35;;;;;;;;;;4369755;32;316399;-87
2023/07/27 13:42:18;;;;;;;3.28;2.28;;;;;;;;;;4343326;32;316824;-86
2023/07/27 13:44:45;;;;;;;4.93;1.92;;;;;;;;;;4350451;32;317005;-87
2023/07/27 13:47:11;;;;;;;4.20;2.25;;;;;;;;;;4336337;32;316717;-87
2023/07/27 13:49:38;;;;;;;5.35;2.30;;;;;;;;;;4354570;32;316990;-87
2023/07/27 13:52:05;;;;;;;4.50;2.22;;;;;;;;;;4355038;32;316685;-87
2023/07/27 13:54:32;;;;;;;3.30;2.08;;;;;;;;;;4343809;32;317502;-87
2023/07/27 13:57:00;;;;;;;3.10;2.42;;;;;;;;;;4340894;32;317102;-86
2023/07/27 13:59:27;;;;;;;2.70;1.90;;;;;;;;;;4330449;32;317018;-86
2023/07/27 14:01:53;;;;;;;3.97;1.83;;;;;;;;;;4338883;32;316699;-87
2023/07/27 14:04:20;;;;;;;3.78;2.20;;;;;;;;;;4327350;32;356908;-86
2023/07/27 14:06:47;;;;;;;2.62;1.90;;;;;;;;;;4339145;32;316729;-87
2023/07/27 14:09:13;;;;;;;3.25;2.20;;;;;;;;;;4329667;32;317002;-87
2023/07/27 14:11:40;;;;;;;5.62;2.20;;;;;;;;;;4337660;32;316568;-87
2023/07/27 14:14:08;;;;;;;4.90;2.08;;;;;;;;;;4339071;32;317058;-86
2023/07/27 14:16:35;;;;;;;2.42;1.80;;;;;;;;;;4318816;32;416768;-87
2023/07/27 14:19:02;;;;;;;3.95;2.20;;;;;;;;;;4338583;32;317291;-86
2023/07/27 14:21:30;;;;;;;2.58;2.22;;;;;;;;;;4351419;32;317170;-87
2023/07/27 14:23:56;;;;;;;4.22;2.00;;;;;;;;;;4352986;32;317315;-86
2023/07/27 14:26:23;;;;;;;2.77;2.27;;;;;;;;;;4333392;32;316467;-91
2023/07/27 14:28:50;;;;;;;3.12;1.90;;;;;;;;;;4361011;32;316748;-85
2023/07/27 14:31:19;;;;;;;2.00;1.87;;;;;;;;;;4351990;32;316633;-85
2023/07/27 14:33:46;;;;;;;6.78;1.75;;;;;;;;;;4340140;32;316381;-90